Weather observations for the past three days for
Antelope County Airport
Imperial (Metric)
Date Time (cdt) Wind (mph) Vis. (mi.) Weather Sky Cond. Temperature (ºF) Relative Humidity Wind Chill (°F) Heat Index (°F) Pressure Precipitation (in)
Air Dwpt 6 hour altimeter (in) sea level (mb) 1 hr 3 hr 6 hr
Max. Min.
03 14:15 NW 9 10.00 Fair CLR 71.6 35.6 27% 29.87 0.0
03 13:55 Vrbl 7 G 16 10.00 Fair CLR 69.8 35.6 29% 29.88 0.0
03 13:35 NW 9 10.00 Fair CLR 69.8 35.6 29% 29.89 0.0
03 13:15 NW 10 10.00 Fair CLR 69.8 35.6 29% 29.89 0.0
03 12:55 N 5 G 12 10.00 Fair CLR 68 35.6 30% 29.91 0.0
03 12:35 NW 7 G 15 10.00 Fair CLR 68 37.4 33% 29.91 0.0
03 12:15 W 5 G 12 10.00 Fair CLR 68 35.6 30% 29.92 0.0
03 11:55 N 10 10.00 Fair CLR 68 35.6 30% 29.92 0.0
03 11:35 NE 8 10.00 Fair CLR 66.2 35.6 32% 29.92 0.0
03 11:15 Vrbl 6 G 14 10.00 Fair CLR 66.2 37.4 35% 29.92 0.0
03 10:55 NE 7 10.00 Fair CLR 66.2 37.4 35% 29.92 0.0
03 10:35 Vrbl 7 10.00 Fair CLR 66.2 37.4 35% 29.92 0.0
03 10:15 NE 7 G 14 10.00 Fair CLR 64.4 37.4 37% 29.93 0.0
03 09:55 Vrbl 7 G 15 10.00 Fair CLR 62.6 39.2 42% 29.91 0.0
03 09:35 N 10 10.00 Fair CLR 60.8 39.2 45% 29.91 0.0
03 09:15 N 13 10.00 Fair CLR 59 37.4 45% 29.91 0.0
03 08:55 NW 8 10.00 Fair CLR 57.2 39.2 51% 29.92 0.0
03 08:35 NW 12 10.00 Fair CLR 57.2 39.2 51% 29.91 0.0
03 08:15 NW 8 10.00 Fair CLR 53.6 39.2 58% 29.9 0.0
03 07:55 NW 8 10.00 Fair CLR 48.2 37.4 66% 45 29.89 0.0
03 07:35 W 7 10.00 Fair CLR 48.2 37.4 66% 46 29.88 0.0
03 07:15 NW 8 10.00 Fair CLR 46.4 37.4 71% 43 29.88 0.0
03 06:55 NW 8 10.00 Fair CLR 46.4 37.4 71% 43 29.87 0.0
03 06:35 NW 8 10.00 Fair CLR 46.4 35.6 66% 43 29.87 0.0
03 06:15 NW 5 10.00 Fair CLR 48.2 35.6 62% 47 29.86 0.0
03 05:55 NW 8 10.00 Fair CLR 48.2 35.6 62% 45 29.87 0.0
03 05:35 W 10 10.00 Fair CLR 50 35.6 58% 46 29.86 0.0
03 05:15 W 10 10.00 Fair CLR 48.2 35.6 62% 44 29.86 0.0
03 04:55 NW 9 10.00 Fair CLR 48.2 35.6 62% 45 29.86 0.0
03 04:35 W 8 10.00 Fair CLR 48.2 33.8 58% 45 29.85 0.0
03 04:15 NW 9 10.00 Fair CLR 50 33.8 54% 47 29.85 0.0
03 03:55 W 9 10.00 Fair CLR 50 33.8 54% 47 29.85 0.0
03 03:35 NW 7 10.00 A Few Clouds FEW110 50 33.8 54% 48 29.85 0.0
03 03:15 W 9 10.00 A Few Clouds FEW110 53.6 33.8 47% 29.85 0.0
03 02:55 W 8 10.00 Fair CLR 53.6 33.8 47% 29.85 0.0
03 02:35 W 8 G 14 10.00 Fair CLR 55.4 33.8 44% 29.84 0.0
03 02:15 W 14 G 26 10.00 Fair CLR 57.2 33.8 41% 29.84 0.0
03 01:55 SW 21 G 28 10.00 A Few Clouds and Breezy FEW120 59 33.8 39% 29.81 0.0
03 01:35 SW 21 G 30 10.00 Partly Cloudy and Breezy SCT120 59 33.8 39% 29.81 0.0
03 01:15 SW 18 10.00 Fair CLR 59 33.8 39% 29.81 0.0
03 00:55 SW 18 10.00 Fair CLR 59 33.8 39% 29.81 0.0
03 00:35 SW 20 G 28 10.00 Fair CLR 60.8 33.8 36% 29.81 0.0
03 00:15 SW 17 10.00 Fair CLR 60.8 32 34% 29.81 0.0
02 23:55 SW 17 10.00 Fair CLR 60.8 33.8 36% 29.81 0.0
02 23:35 SW 15 G 23 10.00 Fair CLR 60.8 33.8 36% 29.82 0.0
02 23:15 S 14 G 21 10.00 Fair CLR 60.8 33.8 36% 29.82 0.0
02 22:55 S 13 G 20 10.00 Fair CLR 60.8 33.8 36% 29.83 0.0
02 22:35 S 14 G 21 10.00 Fair CLR 60.8 33.8 36% 29.83 0.0
02 22:15 S 14 G 22 10.00 Fair CLR 62.6 33.8 34% 29.84 0.0
02 21:55 S 12 G 18 10.00 Fair CLR 62.6 33.8 34% 29.84 0.0
02 21:35 S 13 10.00 Fair CLR 62.6 33.8 34% 29.85 0.0
02 21:15 S 12 10.00 Fair CLR 62.6 33.8 34% 29.85 0.0
02 20:55 S 10 10.00 Fair CLR 62.6 33.8 34% 29.85 0.0
02 20:35 S 10 10.00 Fair CLR 64.4 32 30% 29.86 0.0
02 20:15 S 8 10.00 Fair CLR 66.2 32 28% 29.87 0.0
02 19:55 S 9 10.00 Fair CLR 69.8 32 25% 29.87 0.0
02 19:35 Calm 10.00 Fair CLR 71.6 30.2 22% 29.88 0.0
02 19:15 SW 12 G 17 10.00 Fair CLR 71.6 28.4 20% 29.88 0.0
02 18:55 SW 14 G 21 10.00 Fair CLR 71.6 28.4 20% 29.9 0.0
02 18:30 SW 13 G 20 10.00 Fair CLR 71.6 28.4 20% 29.91 0.0
02 18:15 SW 15 10.00 Fair CLR 71.6 28.4 20% 29.91 0.0
02 17:55 SW 15 10.00 Fair CLR 71.6 28.4 20% 29.92 0.0
02 17:35 SW 10 G 21 10.00 Fair CLR 71.6 28.4 20% 29.93 0.0
02 17:15 SW 15 10.00 Fair CLR 71.6 26.6 19% 29.94 0.0
02 16:55 SW 14 10.00 Fair CLR 71.6 24.8 17% 29.95 0.0
02 16:35 SW 16 G 22 10.00 Fair CLR 69.8 23 17% 29.96 0.0
02 16:15 W 15 10.00 Fair CLR 69.8 23 17% 29.98 0.0
02 15:55 W 13 G 26 10.00 Fair CLR 68 21.2 17% 29.99 0.0
02 15:35 SW 15 10.00 Fair CLR 68 21.2 17% 30 0.0
02 15:15 W 13 G 28 10.00 Fair CLR 68 21.2 17% 30.01 0.0
02 14:35 SW 8 G 14 10.00 Fair CLR 66.2 21.2 18% 30.03 0.0
02 14:15 W 10 10.00 Fair CLR 66.2 21.2 18% 30.04 0.0
02 13:55 Vrbl 6 G 16 10.00 Fair CLR 66.2 21.2 18% 30.05 0.0
02 13:35 W 13 G 21 10.00 Fair CLR 64.4 23 21% 30.06 0.0
02 13:15 W 9 10.00 Fair CLR 64.4 23 21% 30.07 0.0
02 12:55 SW 14 G 23 10.00 Fair CLR 64.4 24.8 22% 30.08 0.0
02 12:35 SW 9 10.00 Fair CLR 64.4 24.8 22% 30.09 0.0
02 12:15 Calm 10.00 Fair CLR 62.6 24.8 24% 30.1 0.0
02 11:55 SW 9 10.00 Fair CLR 62.6 24.8 24% 30.1 0.0
02 11:35 SW 12 10.00 Fair CLR 60.8 26.6 27% 30.1 0.0
02 11:15 SW 12 G 18 10.00 Fair CLR 60.8 26.6 27% 30.11 0.0
02 10:55 SW 12 10.00 Fair CLR 59 26.6 29% 30.12 0.0
02 10:35 W 12 10.00 Fair CLR 59 30.2 34% 30.12 0.0
02 10:15 W 12 10.00 Fair CLR 57.2 30.2 36% 30.13 0.0
02 09:55 W 12 10.00 Fair CLR 53.6 32 44% 30.13 0.0
02 09:35 W 13 10.00 Fair CLR 50 30.2 47% 46 30.14 0.0
02 09:15 Vrbl 7 G 14 10.00 Fair CLR 48.2 30.2 50% 46 30.15 0.0
02 08:55 W 5 10.00 Fair CLR 44.6 32 61% 43 30.15 0.0
02 08:35 Calm 10.00 Fair CLR 39.2 30.2 70% 30.15 0.0
02 08:15 Calm 10.00 Fair CLR 37.4 30.2 75% 30.15 0.0
02 07:55 Calm 10.00 Fair CLR 35.6 30.2 81% 30.15 0.0
02 07:35 Calm 10.00 Fair CLR 33.8 30.2 87% 30.15 0.0
02 07:15 Calm 10.00 Fair CLR 30.2 28.4 93% 30.16 0.0
02 06:55 Calm 10.00 Fair CLR 30.2 26.6 86% 30.16 0.0
02 06:35 NW 5 10.00 Fair CLR 30.2 26.6 86% 26 30.16 0.0
02 06:15 NW 5 10.00 Fair CLR 28.4 24.8 86% 24 30.16 0.0
02 05:55 W 6 10.00 Fair CLR 30.2 26.6 86% 25 30.16 0.0
02 05:35 Calm 10.00 Fair CLR 30.2 26.6 86% 30.15 0.0
02 05:15 Calm 10.00 Fair CLR 30.2 26.6 86% 30.16 0.0
02 04:55 Calm 10.00 Fair CLR 30.2 26.6 86% 30.16 0.0
02 04:35 NW 5 10.00 Fair CLR 30.2 26.6 86% 26 30.16 0.0
02 04:15 Calm 10.00 Fair CLR 30.2 26.6 86% 30.16 0.0
02 03:55 NW 3 10.00 Fair CLR 30.2 26.6 86% 30.16 0.0
02 03:30 NW 5 10.00 Fair CLR 30.2 26.6 86% 26 30.16 0.0
02 03:15 NW 3 10.00 Fair CLR 32 26.6 80% 30.15 0.0
02 02:55 NW 3 10.00 Fair CLR 30.2 26.6 86% 30.15 0.0
02 02:35 NW 3 10.00 Fair CLR 32 26.6 80% 30.15 0.0
02 02:15 NW 3 10.00 Fair CLR 32 26.6 80% 30.16 0.0
02 01:55 NW 3 10.00 Fair CLR 33.8 26.6 75% 30.16 0.0
02 01:35 NW 5 10.00 Fair CLR 33.8 26.6 75% 30 30.16 0.0
02 01:15 NW 3 10.00 Fair CLR 33.8 26.6 75% 30.16 0.0
02 00:55 Calm 10.00 Fair CLR 35.6 26.6 70% 30.16 0.0
02 00:35 Calm 10.00 Fair CLR 35.6 26.6 70% 30.16 0.0
02 00:15 Calm 10.00 Fair CLR 35.6 26.6 70% 30.15 0.0
01 23:55 Calm 10.00 Fair CLR 37.4 26.6 65% 30.15 0.0
01 23:35 Calm 10.00 Fair CLR 37.4 26.6 65% 30.15 0.0
01 23:15 W 5 10.00 Fair CLR 39.2 24.8 56% 36 30.15 0.0
01 22:55 Calm 10.00 Fair CLR 41 24.8 53% 30.15 0.0
01 22:35 Calm 10.00 Fair CLR 42.8 24.8 49% 30.15 0.0
01 22:15 Calm 10.00 Fair CLR 46.4 24.8 43% 30.14 0.0
01 21:55 Calm 10.00 Fair CLR 46.4 26.6 46% 30.14 0.0
01 21:35 NE 5 10.00 Fair CLR 46.4 24.8 43% 45 30.13 0.0
01 21:15 NE 6 10.00 Fair CLR 48.2 24.8 40% 46 30.12 0.0
01 20:35 NE 6 10.00 Fair CLR 50 24.8 37% 48 30.11 0.0
01 20:15 NE 7 10.00 Fair CLR 50 23 35% 48 30.11 0.0
01 19:55 N 12 10.00 Fair CLR 51.8 23 32% 30.1 0.0
01 19:35 N 10 10.00 Fair CLR 53.6 23 30% 30.1 0.0
01 19:15 NE 10 G 17 10.00 Fair CLR 53.6 23 30% 30.1 0.0
01 18:55 N 9 G 18 10.00 Fair CLR 55.4 23 28% 30.1 0.0
01 18:35 N 14 G 20 10.00 Fair CLR 55.4 23 28% 30.09 0.0
01 18:15 N 13 G 23 10.00 Fair CLR 55.4 23 28% 30.09 0.0
01 17:55 N 15 G 22 10.00 Fair CLR 57.2 23 27% 30.09 0.0
01 17:35 N 10 G 20 10.00 Fair CLR 57.2 23 27% 30.08 0.0
01 17:15 N 14 G 21 10.00 Fair CLR 57.2 21.2 25% 30.08 0.0
01 16:55 N 13 10.00 Fair CLR 57.2 23 27% 30.09 0.0
01 16:35 N 10 10.00 Fair CLR 55.4 21.2 26% 30.09 0.0
01 16:15 N 10 G 17 10.00 A Few Clouds FEW070 57.2 24.8 29% 30.09 0.0
01 15:55 Vrbl 7 G 20 10.00 A Few Clouds FEW075 55.4 23 28% 30.1 0.0
01 15:35 NE 12 G 20 10.00 A Few Clouds FEW070 55.4 23 28% 30.1 0.0
01 15:15 N 12 G 18 10.00 A Few Clouds FEW070 55.4 24.8 31% 30.11 0.0
01 14:55 NW 9 G 21 10.00 Fair CLR 55.4 23 28% 30.11 0.0
01 14:35 NW 14 10.00 Fair CLR 55.4 23 28% 30.11 0.0
01 14:15 Vrbl 7 G 20 10.00 Fair CLR 53.6 23 30% 30.11 0.0
01 13:55 NE 13 G 20 10.00 Fair CLR 53.6 24.8 33% 30.11 0.0
01 13:35 N 13 G 21 10.00 Fair CLR 53.6 23 30% 30.12 0.0
01 13:15 NW 8 G 22 10.00 Fair CLR 51.8 24.8 35% 30.12 0.0
01 12:55 NW 15 10.00 Fair CLR 51.8 24.8 35% 30.12 0.0
01 12:35 NE 18 10.00 Fair CLR 51.8 24.8 35% 30.12 0.0
01 12:15 N 13 G 21 10.00 Fair CLR 50 24.8 37% 46 30.13 0.0
01 11:55 N 13 G 25 10.00 Fair CLR 50 24.8 37% 46 30.13 0.0
01 11:35 N 15 10.00 Fair CLR 50 26.6 40% 45 30.13 0.0
01 11:15 N 17 10.00 Fair CLR 50 24.8 37% 45 30.13 0.0
01 10:55 N 14 G 22 10.00 Fair CLR 48.2 26.6 43% 43 30.13 0.0
01 10:35 N 16 10.00 Fair CLR 48.2 28.4 46% 43 30.12 0.0
01 10:15 N 16 G 24 10.00 Fair CLR 48.2 28.4 46% 43 30.12 0.0
01 09:55 N 17 10.00 Fair CLR 46.4 32 57% 40 30.12 0.0
01 09:35 N 12 10.00 Fair CLR 46.4 35.6 66% 42 30.13 0.0
01 09:15 N 9 10.00 Fair CLR 42.8 35.6 76% 38 30.13 0.0
01 08:55 N 10 10.00 Fair CLR 41 35.6 81% 35 30.12 0.0
01 08:35 NW 12 10.00 Fair CLR 41 35.6 81% 35 30.12 0.0
01 08:15 N 9 10.00 Fair CLR 39.2 35.6 87% 34 30.12 0.0
01 07:55 NW 9 10.00 Fair CLR 39.2 35.6 87% 34 30.11 0.0
01 07:35 NW 7 10.00 Fair CLR 37.4 33.8 87% 33 30.11 0.0
01 07:15 NW 6 10.00 Fair CLR 35.6 33.8 93% 31 30.11 0.0
01 06:55 NW 7 10.00 Fair CLR 35.6 33.8 93% 31 30.1 0.0
01 06:35 NW 7 10.00 Fair CLR 33.8 32 93% 28 30.1 0.0
01 06:15 W 6 G 12 10.00 Fair CLR 33.8 30.2 87% 29 30.09 0.0
01 05:55 W 9 10.00 Fair CLR 33.8 30.2 87% 27 30.09 0.0
01 05:35 W 7 10.00 A Few Clouds FEW120 33.8 30.2 87% 28 30.09 0.0
01 05:15 W 8 10.00 A Few Clouds FEW120 33.8 30.2 87% 28 30.09 0.0
01 04:55 W 7 10.00 Fair CLR 33.8 30.2 87% 28 30.09 0.0
01 04:35 NW 7 10.00 Fair CLR 33.8 30.2 87% 28 30.09 0.0
01 04:15 W 9 10.00 Fair CLR 35.6 30.2 81% 29 30.09 0.0
01 03:55 W 8 10.00 Fair CLR 33.8 28.4 81% 28 30.08 0.0
01 03:35 W 7 10.00 Fair CLR 35.6 28.4 75% 31 30.08 0.0
01 03:15 W 7 10.00 Fair CLR 37.4 28.4 70% 33 30.08 0.0
01 02:55 NW 7 10.00 Fair CLR 37.4 28.4 70% 33 30.08 0.0
01 02:35 NW 9 10.00 Partly Cloudy SCT085 37.4 30.2 75% 31 30.08 0.0
01 02:15 NW 7 10.00 Overcast OVC080 37.4 30.2 75% 33 30.08 0.0
01 01:55 W 5 10.00 Overcast BKN080 OVC090 39.2 30.2 70% 36 30.08 0.0
01 01:35 W 5 10.00 Overcast BKN075 OVC085 41 28.4 61% 38 30.08 0.0
01 01:15 NW 7 10.00 Overcast BKN075 OVC085 41 30.2 66% 37 30.08 0.0
01 00:55 W 6 10.00 Mostly Cloudy SCT070 BKN090 41 28.4 61% 38 30.08 0.0
01 00:35 W 6 10.00 Partly Cloudy SCT090 41 28.4 61% 38 30.08 0.0
01 00:15 W 6 10.00 Mostly Cloudy BKN085 42.8 28.4 57% 40 30.07 0.0
30 23:55 NW 5 10.00 Partly Cloudy SCT080 SCT095 42.8 28.4 57% 41 30.07 0.0
30 23:35 W 3 10.00 Overcast BKN075 OVC090 44.6 28.4 53% 30.07 0.0
30 23:15 W 5 10.00 Overcast BKN075 OVC090 44.6 30.2 57% 43 30.08 0.0
30 22:55 Calm 10.00 Overcast BKN070 OVC090 46.4 32 57% 30.08 0.0
30 22:35 Calm 10.00 Overcast OVC070 46.4 30.2 53% 30.08 0.0
30 22:15 Calm 10.00 Overcast OVC075 46.4 32 57% 30.09 0.0
30 21:55 Calm 10.00 Overcast OVC070 50 26.6 40% 30.08 0.0
30 21:35 SW 3 10.00 Overcast OVC070 46.4 28.4 50% 30.08 0.0
30 21:15 SW 3 10.00 Overcast FEW055 OVC075 46.4 28.4 50% 30.07 0.0
30 20:55 SW 6 10.00 Overcast FEW055 BKN070 OVC100 48.2 26.6 43% 46 30.07 0.0
30 20:35 W 6 10.00 Partly Cloudy FEW075 SCT085 48.2 26.6 43% 46 30.07 0.0
30 20:15 W 7 10.00 Fair CLR 51.8 24.8 35% 30.07 0.0
30 19:55 NW 8 10.00 Fair CLR 53.6 24.8 33% 30.07 0.0
30 19:35 NW 10 10.00 Fair CLR 53.6 24.8 33% 30.07 0.0
30 19:15 NW 8 G 16 10.00 Fair CLR 53.6 23 30% 30.07 0.0
30 18:55 NW 7 10.00 Fair CLR 55.4 23 28% 30.07 0.0
30 18:35 N 8 10.00 Fair CLR 53.6 24.8 33% 30.08 0.0
30 18:15 N 9 10.00 A Few Clouds FEW075 53.6 24.8 33% 30.08 0.0
30 17:55 N 9 G 15 10.00 Partly Cloudy SCT075 SCT085 55.4 24.8 31% 30.08 0.0
30 17:35 N 8 G 17 10.00 Partly Cloudy FEW070 SCT085 55.4 23 28% 30.08 0.0
30 17:15 N 16 10.00 Mostly Cloudy FEW070 BKN085 53.6 24.8 33% 30.08 0.0
30 16:55 N 10 G 17 10.00 A Few Clouds FEW070 53.6 26.6 35% 30.09 0.0
30 16:35 NW 10 G 17 10.00 A Few Clouds FEW065 FEW075 55.4 24.8 31% 30.09 0.0
30 16:15 Vrbl 6 G 16 10.00 Partly Cloudy FEW060 SCT070 SCT085 53.6 24.8 33% 30.09 0.0
30 15:55 N 10 10.00 Overcast SCT060 BKN075 OVC085 51.8 28.4 41% 30.11 0.0
30 15:35 N 13 G 21 10.00 Overcast FEW060 BKN075 OVC085 53.6 28.4 38% 30.11 0.0
30 15:15 N 13 G 21 10.00 Overcast SCT060 BKN070 OVC085 51.8 28.4 41% 30.11 0.0
30 14:55 N 13 10.00 Overcast BKN060 BKN070 OVC080 51.8 28.4 41% 30.11 0.0
Date Time (cdt) Wind (mph) Vis. (mi.) Weather Sky Cond. Air Dwpt Max. Min. Relative Humidity Wind Chill (°F) Heat Index (°F) altimeter (in) sea level (mb) 1 hr 3 hr 6 hr
6 hour
Temperature (ºF) Pressure Precipitation (in)